Strona główna
METAR-TAF:

METAR-TAF

Lotnisko :

Port lotniczy Moskwa-Szeremietiewo

Moskwa-Szeremietiewo, Rosja

Szerokość geograficzna: 55-58N, Długość geograficzna: 037-25E, wysokość: 190 m

Aktualna obserwacja pogody

Raport powstał 18 minut temu, godzina 03:30 UTC
Wiatr 8 kt od zachód
Temperatura 15°C
Wilgotność 77%
Ciśnienie 1016 hPa
Widzialność 10 km lub więcej
Brak chmur poniżej 1500 m i brak chmur cumulonimbus

METAR: UUEE 250330Z 28004MPS CAVOK 15/11 Q1016 R24C/CLRD62 R24L/CLRD62 NOSIG

czas: 06:48 (03:48 UTC)

Prognoza

Raport powstał 1 godzina i 50 minut temu, godzina 01:58 UTC
Prognoza ważna od 25 godzina 03 UTC do 26 godzina 03 UTC
Wiatr 10 kt od zachód
Widzialność 10 km lub więcej
Przerywane chmury na wysokości 3000 ft

TAF: UUEE 250158Z 2503/2603 28005MPS 9999 BKN030 TX23/2512Z TN12/2601Z

Obserwacja i prognoza pogody dla ponad 4000 lotnisk (raport METAR i TAF).

Dostępne stacje oznaczono żółtymi i czerwonymi punktami na mapie.

Najedź kursorem aby zobaczyć nazwę stacji.

Kliknij aby zobaczyć obserwacje i prognozy pogody.

Aby zmienić mapę: kliknij na zielony przycisk z czarnym krzyżykiem, aby powiększyć; na zielony przycisk z myślnikiem, aby pomniejszyć; na zielone strzałki, aby przejść do map sąsiednich.


METAR-TAF: